createdAt,value
2022-09-06T00:04:15.573Z,8.96
2022-09-06T00:06:44.281Z,9.07
2022-09-06T00:09:12.763Z,9.10
2022-09-06T00:11:41.968Z,9.13
2022-09-06T00:14:10.541Z,9.09
2022-09-06T00:16:41.173Z,8.99
2022-09-06T00:19:11.551Z,9.07
2022-09-06T00:21:40.561Z,8.99
2022-09-06T00:24:09.378Z,8.87
2022-09-06T00:26:38.193Z,8.82
2022-09-06T00:29:06.830Z,8.81
2022-09-06T00:31:35.970Z,8.88
2022-09-06T00:34:05.043Z,8.93
2022-09-06T00:36:35.321Z,8.95
2022-09-06T00:39:05.333Z,8.98
2022-09-06T00:41:34.230Z,8.96
2022-09-06T00:44:04.444Z,9.03
2022-09-06T00:46:34.149Z,9.05
2022-09-06T00:49:05.961Z,9.04
2022-09-06T00:51:36.843Z,9.03
2022-09-06T00:54:06.468Z,8.99
2022-09-06T00:56:36.728Z,8.95
2022-09-06T00:59:05.406Z,8.84
2022-09-06T01:01:35.762Z,8.79
2022-09-06T01:04:04.975Z,8.85
2022-09-06T01:06:37.361Z,8.92
2022-09-06T01:09:11.889Z,8.85
2022-09-06T01:11:52.613Z,8.81
2022-09-06T01:14:28.300Z,8.70
2022-09-06T01:16:59.592Z,8.53
2022-09-06T01:19:48.898Z,8.50
2022-09-06T01:22:28.676Z,8.53
2022-09-06T01:25:11.971Z,8.47
2022-09-06T01:27:59.025Z,8.49
2022-09-06T01:30:29.870Z,8.51
2022-09-06T01:33:02.881Z,8.59
2022-09-06T01:35:36.385Z,8.51
2022-09-06T01:38:05.952Z,8.53
2022-09-06T01:40:36.759Z,8.61
2022-09-06T01:43:10.811Z,8.63
2022-09-06T01:45:47.121Z,8.63
2022-09-06T01:48:20.112Z,8.67
2022-09-06T01:50:52.818Z,8.63
2022-09-06T01:53:32.147Z,8.62
2022-09-06T01:58:54.938Z,8.57
2022-09-06T02:01:29.900Z,8.59
2022-09-06T02:04:02.469Z,8.65
2022-09-06T02:06:33.096Z,8.67
2022-09-06T02:09:06.835Z,8.62
2022-09-06T02:11:38.069Z,8.62
2022-09-06T02:14:08.778Z,8.56
2022-09-06T02:16:42.117Z,8.57
2022-09-06T02:19:14.418Z,8.57
2022-09-06T02:21:45.578Z,8.41
2022-09-06T02:24:18.960Z,8.32
2022-09-06T02:26:48.341Z,8.37
2022-09-06T02:29:17.678Z,8.39
2022-09-06T02:31:50.592Z,8.28
2022-09-06T02:34:20.134Z,8.26
2022-09-06T02:36:49.399Z,8.28
2022-09-06T02:39:18.405Z,8.33
2022-09-06T02:41:48.959Z,8.28
2022-09-06T02:44:18.442Z,8.35
2022-09-06T02:46:48.777Z,8.44
2022-09-06T02:49:18.533Z,8.42
2022-09-06T02:51:47.152Z,8.38
2022-09-06T02:54:15.861Z,8.43
2022-09-06T02:56:45.549Z,8.46
2022-09-06T02:59:16.713Z,8.58
2022-09-06T03:01:45.827Z,8.58
2022-09-06T03:04:16.042Z,8.61
2022-09-06T03:06:44.748Z,8.49
2022-09-06T03:09:13.328Z,8.51
2022-09-06T03:11:41.962Z,8.52
2022-09-06T03:14:10.710Z,8.57
2022-09-06T03:16:40.391Z,8.55
2022-09-06T03:19:09.039Z,8.58
2022-09-06T03:21:39.333Z,8.57
2022-09-06T03:24:08.385Z,8.71
2022-09-06T03:26:36.937Z,8.68
2022-09-06T03:29:06.358Z,8.63
2022-09-06T03:31:34.858Z,8.64
2022-09-06T03:34:04.674Z,8.63
2022-09-06T03:36:35.112Z,8.64
2022-09-06T03:39:05.192Z,8.67
2022-09-06T03:41:33.679Z,8.77
2022-09-06T03:44:02.593Z,8.73
2022-09-06T03:46:31.701Z,8.61
2022-09-06T03:49:02.061Z,8.74
2022-09-06T03:51:32.864Z,8.66
2022-09-06T03:54:01.550Z,8.66
2022-09-06T03:56:32.212Z,8.72
2022-09-06T03:59:01.102Z,8.66
2022-09-06T04:01:29.657Z,8.71
2022-09-06T04:03:58.681Z,8.69
2022-09-06T04:06:27.984Z,8.54
2022-09-06T04:08:57.333Z,8.65
2022-09-06T04:11:27.116Z,8.68
2022-09-06T04:13:57.504Z,8.62
2022-09-06T04:16:26.346Z,8.63
2022-09-06T04:18:55.193Z,8.68
2022-09-06T04:21:23.842Z,8.80
2022-09-06T04:23:53.672Z,8.76
2022-09-06T04:26:21.978Z,8.85
2022-09-06T04:28:50.486Z,8.87
2022-09-06T04:31:20.858Z,8.89
2022-09-06T04:36:49.285Z,8.92
2022-09-06T04:39:21.411Z,8.95
2022-09-06T04:41:50.156Z,8.80
2022-09-06T04:44:18.987Z,8.88
2022-09-06T04:46:49.380Z,9.04
2022-09-06T04:49:18.560Z,9.09
2022-09-06T04:51:47.385Z,9.03
2022-09-06T04:54:16.506Z,9.18
2022-09-06T04:56:45.645Z,9.11
2022-09-06T04:59:14.558Z,9.21
2022-09-06T05:01:43.843Z,9.24
2022-09-06T05:04:17.025Z,9.20
2022-09-06T05:06:47.063Z,9.00
2022-09-06T05:09:16.232Z,9.19
2022-09-06T05:11:49.425Z,9.21
2022-09-06T05:14:21.933Z,9.31
2022-09-06T05:16:56.895Z,9.40
2022-09-06T05:22:26.442Z,9.45
2022-09-06T05:24:57.299Z,9.46
2022-09-06T05:27:34.449Z,9.34
2022-09-06T05:30:03.657Z,9.44
2022-09-06T05:32:36.881Z,9.54
2022-09-06T05:35:09.004Z,9.54
2022-09-06T05:37:46.770Z,9.51
2022-09-06T05:40:17.706Z,9.49
2022-09-06T05:42:49.098Z,9.61
2022-09-06T05:45:19.596Z,9.56
2022-09-06T05:47:53.884Z,9.34
2022-09-06T05:50:23.951Z,9.07
2022-09-06T05:52:57.679Z,9.11
2022-09-06T05:55:29.046Z,9.11
2022-09-06T05:57:59.546Z,9.22
2022-09-06T06:00:33.396Z,9.07
2022-09-06T06:03:02.319Z,9.03
2022-09-06T06:05:32.790Z,9.05
2022-09-06T06:08:07.726Z,9.03
2022-09-06T06:10:40.337Z,9.01
2022-09-06T06:13:09.887Z,8.90
2022-09-06T06:15:43.001Z,9.09
2022-09-06T06:18:17.839Z,9.21
2022-09-06T06:20:50.992Z,9.36
2022-09-06T06:23:22.570Z,9.30
2022-09-06T06:25:53.039Z,9.43
2022-09-06T06:28:23.089Z,9.57
2022-09-06T06:30:54.902Z,9.69
2022-09-06T06:33:25.519Z,9.82
2022-09-06T06:36:03.187Z,10.04
2022-09-06T06:38:37.636Z,10.24
2022-09-06T06:41:07.388Z,10.56
2022-09-06T06:43:41.256Z,10.70
2022-09-06T06:46:13.816Z,10.91
2022-09-06T06:48:45.594Z,10.95
2022-09-06T06:51:16.491Z,11.18
2022-09-06T06:53:48.192Z,11.47
2022-09-06T06:56:18.426Z,11.32
2022-09-06T06:58:49.543Z,10.87
2022-09-06T07:01:20.530Z,10.53
2022-09-06T07:03:49.751Z,10.58
2022-09-06T07:06:20.015Z,10.43
2022-09-06T07:14:34.215Z,10.79
2022-09-06T07:17:07.418Z,10.98
2022-09-06T07:22:32.483Z,11.17
2022-09-06T07:25:05.333Z,11.23
2022-09-06T07:27:53.066Z,11.41
2022-09-06T07:30:27.061Z,11.33
2022-09-06T07:32:57.740Z,11.55
2022-09-06T07:35:35.863Z,11.74
2022-09-06T07:38:09.841Z,11.62
2022-09-06T07:40:40.820Z,11.18
2022-09-06T07:43:15.566Z,11.09
2022-09-06T07:45:48.670Z,11.43
2022-09-06T07:48:20.300Z,11.48
2022-09-06T07:50:55.900Z,11.54
2022-09-06T07:53:31.260Z,11.56
2022-09-06T07:56:03.084Z,11.32
2022-09-06T07:58:34.069Z,11.50
2022-09-06T08:01:29.685Z,11.73
2022-09-06T08:04:05.916Z,11.81
2022-09-06T08:09:27.937Z,12.19
2022-09-06T08:11:56.875Z,12.08
2022-09-06T08:14:25.498Z,11.85
2022-09-06T08:16:56.187Z,11.88
2022-09-06T08:19:28.522Z,11.70
2022-09-06T08:21:57.958Z,11.59
2022-09-06T08:24:27.709Z,11.66
2022-09-06T08:26:57.379Z,11.52
2022-09-06T08:29:26.565Z,11.56
2022-09-06T08:31:56.743Z,11.62
2022-09-06T08:34:29.473Z,11.60
2022-09-06T08:37:00.216Z,11.38
2022-09-06T08:39:30.650Z,11.70
2022-09-06T08:42:08.353Z,11.98
2022-09-06T08:44:56.660Z,12.38
2022-09-06T08:47:28.614Z,12.74
2022-09-06T08:50:11.009Z,12.82
2022-09-06T08:55:40.879Z,12.66
2022-09-06T08:58:18.283Z,12.64
2022-09-06T09:01:07.618Z,12.42
2022-09-06T09:03:42.917Z,12.06
2022-09-06T09:09:11.123Z,12.17
2022-09-06T09:11:46.274Z,12.03
2022-09-06T09:14:18.767Z,12.71
2022-09-06T09:16:50.821Z,13.01
2022-09-06T09:19:23.065Z,12.93
2022-09-06T09:21:56.008Z,13.24
2022-09-06T09:24:28.799Z,13.38
2022-09-06T09:27:02.518Z,13.66
2022-09-06T09:29:36.148Z,13.88
2022-09-06T09:32:05.791Z,14.18
2022-09-06T09:34:36.262Z,14.06
2022-09-06T09:40:16.010Z,12.49
2022-09-06T09:42:45.855Z,11.81
2022-09-06T09:48:19.238Z,11.59
2022-09-06T09:50:48.764Z,11.64
2022-09-06T09:53:22.380Z,11.65
2022-09-06T09:55:52.933Z,11.75
2022-09-06T09:58:26.960Z,11.67
2022-09-06T10:01:11.310Z,11.74
2022-09-06T10:09:32.370Z,11.32
2022-09-06T10:12:01.898Z,11.02
2022-09-06T10:14:32.704Z,10.88
2022-09-06T10:17:01.789Z,10.90
2022-09-06T10:19:49.017Z,10.84
2022-09-06T10:22:28.342Z,11.07
2022-09-06T10:25:28.408Z,11.19
2022-09-06T10:28:11.273Z,11.38
2022-09-06T10:30:44.374Z,11.74
2022-09-06T10:33:19.904Z,12.21
2022-09-06T10:35:51.042Z,12.42
2022-09-06T10:38:33.766Z,12.73
2022-09-06T10:41:16.872Z,12.87
2022-09-06T10:43:55.645Z,12.75
2022-09-06T10:46:29.903Z,12.64
2022-09-06T10:49:01.191Z,12.44
2022-09-06T10:51:40.975Z,12.29
2022-09-06T10:54:47.821Z,12.41
2022-09-06T11:00:26.265Z,12.14
2022-09-06T11:05:58.589Z,12.00
2022-09-06T11:08:47.021Z,11.81
2022-09-06T11:11:24.916Z,11.96
2022-09-06T11:14:02.467Z,12.13
2022-09-06T11:16:43.398Z,12.22
2022-09-06T11:19:18.769Z,12.00
2022-09-06T11:25:27.082Z,12.13
2022-09-06T11:28:03.023Z,12.38
2022-09-06T11:30:37.309Z,12.70
2022-09-06T11:33:25.281Z,12.80
2022-09-06T11:35:55.742Z,12.41
2022-09-06T11:38:26.907Z,12.43
2022-09-06T11:41:00.945Z,12.40
2022-09-06T11:43:48.091Z,12.51
2022-09-06T11:49:36.202Z,12.69
2022-09-06T11:52:34.433Z,12.85
2022-09-06T11:55:07.035Z,12.84
2022-09-06T11:57:36.438Z,12.92
2022-09-06T12:00:11.393Z,13.06
2022-09-06T12:02:41.164Z,13.05
2022-09-06T12:05:12.941Z,13.18
2022-09-06T12:08:05.221Z,13.10
2022-09-06T12:10:53.012Z,13.54
2022-09-06T12:13:42.027Z,13.60
2022-09-06T12:16:12.327Z,13.52
2022-09-06T12:19:00.365Z,13.11
2022-09-06T12:24:40.883Z,13.03
2022-09-06T12:27:15.830Z,13.02
2022-09-06T12:30:00.161Z,12.96
2022-09-06T12:32:34.789Z,13.07
2022-09-06T12:38:01.851Z,12.98
2022-09-06T12:40:33.970Z,12.89
2022-09-06T12:43:06.024Z,12.78
2022-09-06T12:45:38.349Z,12.28
2022-09-06T12:48:09.391Z,11.87
2022-09-06T12:50:38.567Z,11.54
2022-09-06T12:53:23.382Z,11.26
2022-09-06T12:56:06.472Z,10.83
2022-09-06T12:58:41.855Z,10.66
2022-09-06T13:01:17.523Z,10.47
2022-09-06T13:03:56.974Z,10.46
2022-09-06T13:06:37.119Z,10.45
2022-09-06T13:17:48.555Z,10.98
2022-09-06T13:20:39.392Z,10.99
2022-09-06T13:23:15.141Z,10.98
2022-09-06T13:26:00.404Z,10.92
2022-09-06T13:28:39.424Z,10.97
2022-09-06T13:31:43.790Z,10.96
2022-09-06T13:43:29.205Z,11.53
2022-09-06T13:46:13.282Z,11.53
2022-09-06T13:48:45.112Z,11.44
2022-09-06T13:51:26.088Z,11.27
2022-09-06T13:54:14.502Z,11.35
2022-09-06T13:56:52.037Z,11.42
2022-09-06T13:59:23.995Z,11.35
2022-09-06T14:02:02.291Z,11.34
2022-09-06T14:04:32.754Z,10.88
2022-09-06T14:07:17.825Z,10.58
2022-09-06T14:09:51.079Z,10.26
2022-09-06T14:12:22.733Z,10.21
2022-09-06T14:14:59.292Z,10.00
2022-09-06T14:17:29.621Z,9.77
2022-09-06T14:19:59.110Z,9.90
2022-09-06T14:22:34.381Z,9.99
2022-09-06T14:25:08.119Z,9.97
2022-09-06T14:27:41.868Z,10.07
2022-09-06T14:30:16.023Z,10.00
2022-09-06T14:32:44.722Z,10.00
2022-09-06T14:35:14.409Z,10.07
2022-09-06T14:37:46.452Z,10.14
2022-09-06T14:40:19.279Z,10.26
2022-09-06T14:42:50.557Z,10.36
2022-09-06T14:45:23.206Z,10.41
2022-09-06T14:47:59.724Z,10.48
2022-09-06T14:50:29.100Z,10.61
2022-09-06T14:53:01.424Z,10.63
2022-09-06T14:55:37.231Z,10.63
2022-09-06T15:06:58.920Z,10.72
2022-09-06T15:09:33.568Z,10.66
2022-09-06T15:24:11.675Z,10.72
2022-09-06T15:27:06.133Z,10.68
2022-09-06T15:29:39.925Z,10.60
2022-09-06T15:32:23.963Z,10.72
2022-09-06T15:35:05.622Z,10.64
2022-09-06T15:37:44.440Z,10.66
2022-09-06T15:40:20.570Z,10.53
2022-09-06T15:43:05.887Z,10.58
2022-09-06T15:45:53.110Z,10.60
2022-09-06T15:48:23.295Z,10.54
2022-09-06T15:50:54.617Z,10.61
2022-09-06T15:53:24.854Z,10.60
2022-09-06T15:56:02.806Z,10.65
2022-09-06T15:58:36.274Z,10.66
2022-09-06T16:01:08.497Z,10.76
2022-09-06T16:03:40.366Z,10.36
2022-09-06T16:06:27.999Z,10.32
2022-09-06T16:08:58.967Z,10.41
2022-09-06T16:11:28.678Z,10.23
2022-09-06T16:13:59.806Z,10.08
2022-09-06T16:16:30.085Z,10.00
2022-09-06T16:18:59.529Z,10.01
2022-09-06T16:21:30.562Z,9.91
2022-09-06T16:24:00.153Z,10.03
2022-09-06T16:26:30.300Z,10.10
2022-09-06T16:29:01.801Z,10.07
2022-09-06T16:31:35.275Z,10.16
2022-09-06T16:34:06.510Z,10.07
2022-09-06T16:36:36.204Z,10.12
2022-09-06T16:39:05.293Z,10.15
2022-09-06T16:41:36.227Z,10.01
2022-09-06T16:44:06.507Z,9.97
2022-09-06T16:46:35.064Z,9.93
2022-09-06T16:49:04.946Z,9.91
2022-09-06T16:51:33.722Z,10.07
2022-09-06T16:54:02.291Z,9.85
2022-09-06T16:56:33.538Z,9.89
2022-09-06T16:59:03.036Z,9.94
2022-09-06T17:01:36.516Z,10.02
2022-09-06T17:04:05.794Z,9.96
2022-09-06T17:06:38.397Z,9.96
2022-09-06T17:09:07.475Z,9.86
2022-09-06T17:11:37.458Z,9.98
2022-09-06T17:14:06.475Z,9.97
2022-09-06T17:16:53.875Z,9.98
2022-09-06T17:19:23.009Z,10.00
2022-09-06T17:21:51.835Z,9.95
2022-09-06T17:24:20.896Z,9.95
2022-09-06T17:26:49.431Z,9.88
2022-09-06T17:29:18.192Z,9.76
2022-09-06T17:31:49.710Z,9.92
2022-09-06T17:34:18.556Z,9.85
2022-09-06T17:36:47.237Z,9.79
2022-09-06T17:39:34.969Z,9.88
2022-09-06T17:42:03.712Z,9.83
2022-09-06T17:44:32.543Z,9.88
2022-09-06T17:47:13.050Z,9.81
2022-09-06T17:49:42.781Z,9.55
2022-09-06T17:52:11.359Z,9.55
2022-09-06T17:54:39.590Z,9.64
2022-09-06T17:57:08.304Z,9.62
2022-09-06T17:59:36.692Z,9.54
2022-09-06T18:02:07.055Z,9.58
2022-09-06T18:04:36.173Z,9.61
2022-09-06T18:07:04.978Z,9.69
2022-09-06T18:09:33.377Z,9.76
2022-09-06T18:12:02.335Z,9.73
2022-09-06T18:14:31.094Z,9.52
2022-09-06T18:16:59.829Z,9.36
2022-09-06T18:19:30.103Z,9.40
2022-09-06T18:21:58.713Z,9.50
2022-09-06T18:24:27.411Z,9.49
2022-09-06T18:26:56.590Z,9.50
2022-09-06T18:29:24.949Z,9.44
2022-09-06T18:31:54.461Z,9.40
2022-09-06T18:34:22.966Z,9.48
2022-09-06T18:36:52.700Z,9.46
2022-09-06T18:39:21.387Z,9.48
2022-09-06T18:42:01.957Z,9.34
2022-09-06T18:44:33.089Z,9.30
2022-09-06T18:47:02.700Z,9.34
2022-09-06T18:49:32.627Z,9.32
2022-09-06T18:52:03.168Z,9.34
2022-09-06T18:54:32.364Z,9.26
2022-09-06T18:57:00.993Z,9.34
2022-09-06T18:59:29.795Z,9.44
2022-09-06T19:01:58.278Z,9.38
2022-09-06T19:04:26.751Z,9.46
2022-09-06T19:06:59.298Z,9.41
2022-09-06T19:09:29.424Z,9.20
2022-09-06T19:11:57.926Z,9.21
2022-09-06T19:14:28.192Z,9.30
2022-09-06T19:16:56.767Z,9.31
2022-09-06T19:19:26.109Z,9.38
2022-09-06T19:21:54.364Z,9.37
2022-09-06T19:24:24.820Z,9.31
2022-09-06T19:26:55.527Z,9.35
2022-09-06T19:29:24.453Z,9.20
2022-09-06T19:31:53.149Z,9.23
2022-09-06T19:34:22.267Z,9.11
2022-09-06T19:36:52.411Z,9.06
2022-09-06T19:39:21.671Z,9.24
2022-09-06T19:41:50.102Z,9.03
2022-09-06T19:44:20.829Z,9.09
2022-09-06T19:46:49.291Z,9.12
2022-09-06T19:49:20.622Z,9.02
2022-09-06T19:51:50.963Z,9.01
2022-09-06T19:54:20.176Z,9.11
2022-09-06T19:56:49.684Z,8.95
2022-09-06T19:59:23.895Z,8.98
2022-09-06T20:01:54.107Z,9.07
2022-09-06T20:04:23.530Z,9.00
2022-09-06T20:09:34.348Z,9.13
2022-09-06T20:12:03.092Z,9.14
2022-09-06T20:14:31.568Z,8.95
2022-09-06T20:17:16.772Z,9.10
2022-09-06T20:19:49.813Z,9.08
2022-09-06T20:22:18.215Z,8.95
2022-09-06T20:24:47.208Z,9.04
2022-09-06T20:27:15.713Z,8.95
2022-09-06T20:29:44.183Z,8.91
2022-09-06T20:32:16.163Z,9.01
2022-09-06T20:34:44.637Z,8.93
2022-09-06T20:37:13.109Z,8.89
2022-09-06T20:39:41.795Z,8.83
2022-09-06T20:42:10.273Z,8.76
2022-09-06T20:44:38.898Z,8.93
2022-09-06T20:47:07.404Z,8.82
2022-09-06T20:49:37.522Z,8.74
2022-09-06T20:52:05.832Z,8.83
2022-09-06T20:54:34.716Z,8.73
2022-09-06T20:57:03.159Z,8.76
2022-09-06T20:59:31.534Z,8.74
2022-09-06T21:02:00.902Z,8.64
2022-09-06T21:04:29.632Z,8.71
2022-09-06T21:07:00.667Z,8.64
2022-09-06T21:09:29.363Z,8.81
2022-09-06T21:11:58.932Z,8.69
2022-09-06T21:14:27.564Z,8.61
2022-09-06T21:16:55.938Z,8.55
2022-09-06T21:19:25.700Z,8.53
2022-09-06T21:21:54.007Z,8.68
2022-09-06T21:24:24.067Z,8.67
2022-09-06T21:26:52.461Z,8.76
2022-09-06T21:29:20.751Z,8.69
2022-09-06T21:31:50.893Z,8.66
2022-09-06T21:34:19.165Z,8.51
2022-09-06T21:36:47.575Z,8.47
2022-09-06T21:39:16.365Z,8.55
2022-09-06T21:41:48.639Z,8.58
2022-09-06T21:44:17.614Z,8.58
2022-09-06T21:46:45.976Z,8.68
2022-09-06T21:49:15.372Z,8.57
2022-09-06T21:51:43.912Z,8.51
2022-09-06T21:54:12.387Z,8.51
2022-09-06T21:56:41.018Z,8.12
2022-09-06T21:59:11.322Z,8.04
2022-09-06T22:01:41.025Z,8.00
2022-09-06T22:04:09.825Z,7.89
2022-09-06T22:06:38.345Z,7.94
2022-09-06T22:09:11.153Z,7.85
2022-09-06T22:11:41.014Z,7.90
2022-09-06T22:14:12.359Z,7.86
2022-09-06T22:16:41.947Z,7.81
2022-09-06T22:19:11.483Z,7.84
2022-09-06T22:21:40.611Z,7.63
2022-09-06T22:24:09.648Z,7.73
2022-09-06T22:26:39.360Z,7.66
2022-09-06T22:31:52.610Z,7.72
2022-09-06T22:34:21.281Z,7.74
2022-09-06T22:36:50.128Z,7.61
2022-09-06T22:39:18.840Z,7.51
2022-09-06T22:41:47.671Z,7.47
2022-09-06T22:44:16.355Z,7.48
2022-09-06T22:46:45.463Z,7.51
2022-09-06T22:49:15.592Z,7.45
2022-09-06T22:51:44.202Z,7.46
2022-09-06T22:54:12.841Z,7.54
2022-09-06T22:56:41.299Z,7.44
2022-09-06T22:59:10.134Z,7.40
2022-09-06T23:01:39.459Z,7.42
2022-09-06T23:04:09.196Z,7.32
2022-09-06T23:06:39.355Z,7.27
2022-09-06T23:09:07.746Z,7.22
2022-09-06T23:11:36.513Z,7.20
2022-09-06T23:14:05.437Z,7.13
2022-09-06T23:16:33.978Z,7.12
2022-09-06T23:21:47.708Z,7.20
2022-09-06T23:24:16.770Z,7.18
2022-09-06T23:26:45.120Z,7.22
2022-09-06T23:29:13.984Z,7.17
2022-09-06T23:31:42.676Z,7.17
2022-09-06T23:34:11.165Z,7.22
2022-09-06T23:36:41.085Z,7.21
2022-09-06T23:39:10.889Z,7.09
2022-09-06T23:41:39.857Z,7.13
2022-09-06T23:44:08.740Z,7.17
2022-09-06T23:46:37.949Z,7.17
2022-09-06T23:49:07.186Z,7.14
2022-09-06T23:51:37.216Z,7.23
2022-09-06T23:54:05.837Z,7.16
2022-09-06T23:56:36.151Z,7.22
2022-09-06T23:59:04.761Z,7.26
